sensor_id;sensor_type;location;lat;lon;timestamp;pressure;altitude;pressure_sealevel;temperature;humidity
30182;BME280;16990;49.056;9.240;2022-08-14T00:00:58;98352.38;;;19.31;50.12
30182;BME280;16990;49.056;9.240;2022-08-14T00:03:28;98349.75;;;19.26;50.69
30182;BME280;16990;49.056;9.240;2022-08-14T00:05:57;98341.31;;;19.27;50.53
30182;BME280;16990;49.056;9.240;2022-08-14T00:08:24;98336.09;;;19.17;50.81
30182;BME280;16990;49.056;9.240;2022-08-14T00:10:51;98325.44;;;19.07;51.53
30182;BME280;16990;49.056;9.240;2022-08-14T00:13:20;98325.66;;;19.10;51.32
30182;BME280;16990;49.056;9.240;2022-08-14T00:15:50;98329.97;;;19.11;51.43
30182;BME280;16990;49.056;9.240;2022-08-14T00:18:19;98336.19;;;19.12;51.52
30182;BME280;16990;49.056;9.240;2022-08-14T00:20:46;98321.84;;;19.11;51.50
30182;BME280;16990;49.056;9.240;2022-08-14T00:23:15;98302.19;;;19.06;51.55
30182;BME280;16990;49.056;9.240;2022-08-14T00:25:43;98308.81;;;19.13;51.30
30182;BME280;16990;49.056;9.240;2022-08-14T00:28:12;98308.41;;;19.06;51.79
30182;BME280;16990;49.056;9.240;2022-08-14T00:30:39;98310.19;;;18.97;51.66
30182;BME280;16990;49.056;9.240;2022-08-14T00:33:08;98304.25;;;18.95;51.68
30182;BME280;16990;49.056;9.240;2022-08-14T00:35:34;98303.94;;;18.83;52.08
30182;BME280;16990;49.056;9.240;2022-08-14T00:38:01;98292.75;;;18.70;52.45
30182;BME280;16990;49.056;9.240;2022-08-14T00:40:27;98286.84;;;18.68;52.62
30182;BME280;16990;49.056;9.240;2022-08-14T00:42:54;98297.25;;;18.61;53.22
30182;BME280;16990;49.056;9.240;2022-08-14T00:45:21;98288.00;;;18.62;52.96
30182;BME280;16990;49.056;9.240;2022-08-14T00:47:48;98293.22;;;18.59;53.25
30182;BME280;16990;49.056;9.240;2022-08-14T00:50:18;98273.84;;;18.52;53.28
30182;BME280;16990;49.056;9.240;2022-08-14T00:52:46;98270.72;;;18.44;53.50
30182;BME280;16990;49.056;9.240;2022-08-14T00:55:13;98271.09;;;18.38;53.98
30182;BME280;16990;49.056;9.240;2022-08-14T00:57:40;98273.81;;;18.38;54.00
30182;BME280;16990;49.056;9.240;2022-08-14T01:00:10;98265.28;;;18.31;54.22
30182;BME280;16990;49.056;9.240;2022-08-14T01:02:40;98266.94;;;18.26;54.66
30182;BME280;16990;49.056;9.240;2022-08-14T01:05:08;98277.28;;;18.24;54.39
30182;BME280;16990;49.056;9.240;2022-08-14T01:07:50;98281.59;;;18.25;54.47
30182;BME280;16990;49.056;9.240;2022-08-14T01:10:19;98269.66;;;18.26;53.92
30182;BME280;16990;49.056;9.240;2022-08-14T01:12:46;98272.03;;;18.14;54.49
30182;BME280;16990;49.056;9.240;2022-08-14T01:15:14;98225.34;;;17.90;54.17
30182;BME280;16990;49.056;9.240;2022-08-14T01:17:45;98263.97;;;18.09;54.58
30182;BME280;16990;49.056;9.240;2022-08-14T01:20:30;98264.59;;;18.06;54.63
30182;BME280;16990;49.056;9.240;2022-08-14T01:23:16;98237.91;;;17.80;55.27
30182;BME280;16990;49.056;9.240;2022-08-14T01:25:42;98272.09;;;18.09;54.79
30182;BME280;16990;49.056;9.240;2022-08-14T01:28:09;98233.66;;;17.93;54.81
30182;BME280;16990;49.056;9.240;2022-08-14T01:30:36;98269.97;;;17.68;55.74
30182;BME280;16990;49.056;9.240;2022-08-14T01:36:26;98266.63;;;17.33;57.57
30182;BME280;16990;49.056;9.240;2022-08-14T01:38:55;98251.41;;;17.18;57.47
30182;BME280;16990;49.056;9.240;2022-08-14T01:41:24;98242.69;;;17.03;58.22
30182;BME280;16990;49.056;9.240;2022-08-14T01:43:53;98231.38;;;17.00;58.65
30182;BME280;16990;49.056;9.240;2022-08-14T01:46:26;98254.34;;;17.22;58.46
30182;BME280;16990;49.056;9.240;2022-08-14T01:48:54;98251.06;;;17.25;58.14
30182;BME280;16990;49.056;9.240;2022-08-14T01:51:21;98222.56;;;17.14;57.82
30182;BME280;16990;49.056;9.240;2022-08-14T01:53:50;98240.81;;;17.46;58.09
30182;BME280;16990;49.056;9.240;2022-08-14T01:56:20;98226.50;;;17.46;57.95
30182;BME280;16990;49.056;9.240;2022-08-14T01:58:48;98245.78;;;17.58;57.59
30182;BME280;16990;49.056;9.240;2022-08-14T02:01:17;98241.38;;;17.62;57.85
30182;BME280;16990;49.056;9.240;2022-08-14T02:03:45;98226.25;;;17.61;57.67
30182;BME280;16990;49.056;9.240;2022-08-14T02:06:13;98217.03;;;17.62;57.42
30182;BME280;16990;49.056;9.240;2022-08-14T02:08:40;98200.38;;;17.55;57.33
30182;BME280;16990;49.056;9.240;2022-08-14T02:11:09;98200.03;;;17.61;57.58
30182;BME280;16990;49.056;9.240;2022-08-14T02:13:53;98190.69;;;17.54;57.44
30182;BME280;16990;49.056;9.240;2022-08-14T02:16:23;98204.41;;;17.57;57.36
30182;BME280;16990;49.056;9.240;2022-08-14T02:18:52;98196.75;;;17.46;58.11
30182;BME280;16990;49.056;9.240;2022-08-14T02:21:19;98202.16;;;17.46;57.87
30182;BME280;16990;49.056;9.240;2022-08-14T02:23:46;98210.03;;;17.42;57.93
30182;BME280;16990;49.056;9.240;2022-08-14T02:26:16;98207.13;;;17.38;57.89
30182;BME280;16990;49.056;9.240;2022-08-14T02:28:43;98208.88;;;17.29;57.87
30182;BME280;16990;49.056;9.240;2022-08-14T02:31:12;98204.69;;;17.18;58.04
30182;BME280;16990;49.056;9.240;2022-08-14T02:33:40;98210.16;;;17.13;58.33
30182;BME280;16990;49.056;9.240;2022-08-14T02:36:07;98218.88;;;17.05;59.03
30182;BME280;16990;49.056;9.240;2022-08-14T02:38:36;98200.16;;;17.13;57.94
30182;BME280;16990;49.056;9.240;2022-08-14T02:41:08;98215.75;;;17.16;59.54
30182;BME280;16990;49.056;9.240;2022-08-14T02:43:35;98217.19;;;16.61;60.73
30182;BME280;16990;49.056;9.240;2022-08-14T02:46:04;98205.53;;;16.07;63.01
30182;BME280;16990;49.056;9.240;2022-08-14T02:48:34;98200.06;;;15.83;63.89
30182;BME280;16990;49.056;9.240;2022-08-14T02:51:03;98201.63;;;15.89;64.24
30182;BME280;16990;49.056;9.240;2022-08-14T02:53:31;98188.63;;;15.96;64.56
30182;BME280;16990;49.056;9.240;2022-08-14T02:56:00;98186.47;;;16.27;63.95
30182;BME280;16990;49.056;9.240;2022-08-14T02:58:29;98184.81;;;16.31;64.15
30182;BME280;16990;49.056;9.240;2022-08-14T03:00:56;98177.72;;;16.41;63.94
30182;BME280;16990;49.056;9.240;2022-08-14T03:03:22;98173.59;;;16.48;63.91
30182;BME280;16990;49.056;9.240;2022-08-14T03:05:51;98176.75;;;16.55;63.10
30182;BME280;16990;49.056;9.240;2022-08-14T03:08:20;98182.16;;;16.55;62.28
30182;BME280;16990;49.056;9.240;2022-08-14T03:10:47;98179.03;;;16.43;62.18
30182;BME280;16990;49.056;9.240;2022-08-14T03:13:14;98171.28;;;16.36;62.56
30182;BME280;16990;49.056;9.240;2022-08-14T03:15:40;98177.53;;;16.32;62.55
30182;BME280;16990;49.056;9.240;2022-08-14T03:18:11;98170.06;;;16.24;63.21
30182;BME280;16990;49.056;9.240;2022-08-14T03:20:38;98161.97;;;16.24;63.00
30182;BME280;16990;49.056;9.240;2022-08-14T03:23:06;98154.94;;;16.23;63.18
30182;BME280;16990;49.056;9.240;2022-08-14T03:25:34;98157.19;;;16.15;63.70
30182;BME280;16990;49.056;9.240;2022-08-14T03:28:03;98168.75;;;16.21;62.92
30182;BME280;16990;49.056;9.240;2022-08-14T03:30:33;98163.19;;;16.07;63.49
30182;BME280;16990;49.056;9.240;2022-08-14T03:33:00;98167.50;;;16.08;63.21
30182;BME280;16990;49.056;9.240;2022-08-14T03:35:27;98161.94;;;16.00;63.61
30182;BME280;16990;49.056;9.240;2022-08-14T03:37:54;98151.94;;;16.00;63.60
30182;BME280;16990;49.056;9.240;2022-08-14T03:40:22;98147.13;;;15.97;64.30
30182;BME280;16990;49.056;9.240;2022-08-14T03:42:50;98148.72;;;15.98;63.89
30182;BME280;16990;49.056;9.240;2022-08-14T03:45:16;98157.91;;;15.97;63.96
30182;BME280;16990;49.056;9.240;2022-08-14T03:47:43;98161.09;;;15.99;63.85
30182;BME280;16990;49.056;9.240;2022-08-14T03:50:11;98164.09;;;15.98;64.07
30182;BME280;16990;49.056;9.240;2022-08-14T03:52:38;98155.69;;;15.99;64.13
30182;BME280;16990;49.056;9.240;2022-08-14T03:55:06;98147.88;;;16.03;64.06
30182;BME280;16990;49.056;9.240;2022-08-14T03:57:35;98142.09;;;16.14;63.24
30182;BME280;16990;49.056;9.240;2022-08-14T04:00:04;98136.94;;;16.18;63.27
30182;BME280;16990;49.056;9.240;2022-08-14T04:02:33;98134.28;;;16.13;63.96
30182;BME280;16990;49.056;9.240;2022-08-14T04:05:00;98141.56;;;16.12;63.76
30182;BME280;16990;49.056;9.240;2022-08-14T04:07:27;98138.88;;;16.12;63.28
30182;BME280;16990;49.056;9.240;2022-08-14T04:09:54;98136.72;;;16.14;63.57
30182;BME280;16990;49.056;9.240;2022-08-14T04:12:20;98141.06;;;16.10;63.79
30182;BME280;16990;49.056;9.240;2022-08-14T04:14:48;98137.56;;;16.10;64.26
30182;BME280;16990;49.056;9.240;2022-08-14T04:17:17;98135.66;;;16.10;63.79
30182;BME280;16990;49.056;9.240;2022-08-14T04:19:44;98139.69;;;16.13;63.91
30182;BME280;16990;49.056;9.240;2022-08-14T04:22:11;98141.06;;;16.10;64.12
30182;BME280;16990;49.056;9.240;2022-08-14T04:24:39;98147.03;;;16.07;64.37
30182;BME280;16990;49.056;9.240;2022-08-14T04:27:07;98145.44;;;16.01;64.84
30182;BME280;16990;49.056;9.240;2022-08-14T04:29:35;98131.22;;;15.95;64.63
30182;BME280;16990;49.056;9.240;2022-08-14T04:32:05;98124.91;;;15.76;65.55
30182;BME280;16990;49.056;9.240;2022-08-14T04:34:33;98126.88;;;15.60;66.63
30182;BME280;16990;49.056;9.240;2022-08-14T04:37:00;98137.09;;;15.63;66.56
30182;BME280;16990;49.056;9.240;2022-08-14T04:39:44;98137.19;;;15.53;67.22
30182;BME280;16990;49.056;9.240;2022-08-14T04:42:29;98139.34;;;15.51;67.62
30182;BME280;16990;49.056;9.240;2022-08-14T04:45:13;98136.59;;;15.56;67.88
30182;BME280;16990;49.056;9.240;2022-08-14T04:47:42;98139.03;;;15.58;67.98
30182;BME280;16990;49.056;9.240;2022-08-14T04:50:26;98137.41;;;15.62;67.82
30182;BME280;16990;49.056;9.240;2022-08-14T04:52:53;98132.22;;;15.65;67.51
30182;BME280;16990;49.056;9.240;2022-08-14T04:55:21;98130.59;;;15.69;67.09
30182;BME280;16990;49.056;9.240;2022-08-14T04:57:47;98133.81;;;15.77;66.83
30182;BME280;16990;49.056;9.240;2022-08-14T05:00:15;98129.41;;;15.86;66.59
30182;BME280;16990;49.056;9.240;2022-08-14T05:02:43;98131.25;;;15.90;66.24
30182;BME280;16990;49.056;9.240;2022-08-14T05:05:10;98133.66;;;15.92;65.71
30182;BME280;16990;49.056;9.240;2022-08-14T05:07:37;98122.03;;;15.97;65.53
30182;BME280;16990;49.056;9.240;2022-08-14T05:10:07;98131.84;;;16.16;65.30
30182;BME280;16990;49.056;9.240;2022-08-14T05:12:34;98129.19;;;16.11;65.47
30182;BME280;16990;49.056;9.240;2022-08-14T05:15:05;98140.50;;;15.79;66.39
30182;BME280;16990;49.056;9.240;2022-08-14T05:17:33;98145.22;;;15.58;66.77
30182;BME280;16990;49.056;9.240;2022-08-14T05:20:01;98132.53;;;15.64;67.64
30182;BME280;16990;49.056;9.240;2022-08-14T05:22:27;98138.06;;;15.83;66.79
30182;BME280;16990;49.056;9.240;2022-08-14T05:24:54;98135.38;;;15.83;67.23
30182;BME280;16990;49.056;9.240;2022-08-14T05:27:21;98128.84;;;15.89;67.25
30182;BME280;16990;49.056;9.240;2022-08-14T05:29:47;98136.38;;;16.21;66.89
30182;BME280;16990;49.056;9.240;2022-08-14T05:32:14;98131.56;;;16.42;66.43
30182;BME280;16990;49.056;9.240;2022-08-14T05:34:41;98133.28;;;16.33;66.89
30182;BME280;16990;49.056;9.240;2022-08-14T05:37:09;98129.63;;;16.48;66.64
30182;BME280;16990;49.056;9.240;2022-08-14T05:39:37;98128.63;;;16.63;66.79
30182;BME280;16990;49.056;9.240;2022-08-14T05:42:04;98131.34;;;16.63;67.02
30182;BME280;16990;49.056;9.240;2022-08-14T05:44:31;98137.78;;;16.67;67.07
30182;BME280;16990;49.056;9.240;2022-08-14T05:46:58;98139.81;;;16.75;66.62
30182;BME280;16990;49.056;9.240;2022-08-14T05:49:25;98145.94;;;16.86;66.46
30182;BME280;16990;49.056;9.240;2022-08-14T05:51:51;98140.06;;;17.03;65.88
30182;BME280;16990;49.056;9.240;2022-08-14T05:54:19;98134.44;;;17.18;65.31
30182;BME280;16990;49.056;9.240;2022-08-14T05:56:46;98126.50;;;17.27;65.35
30182;BME280;16990;49.056;9.240;2022-08-14T05:59:13;98140.56;;;17.42;64.80
30182;BME280;16990;49.056;9.240;2022-08-14T06:01:39;98134.13;;;17.57;64.34
30182;BME280;16990;49.056;9.240;2022-08-14T06:04:06;98134.19;;;17.71;63.63
30182;BME280;16990;49.056;9.240;2022-08-14T06:06:32;98129.47;;;17.82;63.47
30182;BME280;16990;49.056;9.240;2022-08-14T06:08:59;98133.06;;;18.10;62.53
30182;BME280;16990;49.056;9.240;2022-08-14T06:11:27;98134.34;;;18.26;61.71
30182;BME280;16990;49.056;9.240;2022-08-14T06:13:54;98131.78;;;18.49;61.34
30182;BME280;16990;49.056;9.240;2022-08-14T06:16:20;98125.81;;;18.80;60.31
30182;BME280;16990;49.056;9.240;2022-08-14T06:18:47;98131.56;;;19.15;58.79
30182;BME280;16990;49.056;9.240;2022-08-14T06:21:15;98123.47;;;19.37;58.33
30182;BME280;16990;49.056;9.240;2022-08-14T06:23:42;98114.59;;;19.45;58.00
30182;BME280;16990;49.056;9.240;2022-08-14T06:26:09;98117.69;;;19.52;57.67
30182;BME280;16990;49.056;9.240;2022-08-14T06:28:37;98127.66;;;19.43;57.83
30182;BME280;16990;49.056;9.240;2022-08-14T06:31:04;98120.56;;;19.56;57.26
30182;BME280;16990;49.056;9.240;2022-08-14T06:33:30;98119.41;;;19.48;57.61
30182;BME280;16990;49.056;9.240;2022-08-14T06:35:57;98111.38;;;19.43;57.95
30182;BME280;16990;49.056;9.240;2022-08-14T06:38:24;98114.41;;;19.42;57.81
30182;BME280;16990;49.056;9.240;2022-08-14T06:40:51;98099.94;;;19.46;57.88
30182;BME280;16990;49.056;9.240;2022-08-14T06:43:18;98085.78;;;19.49;58.17
30182;BME280;16990;49.056;9.240;2022-08-14T06:45:47;98082.19;;;19.63;57.63
30182;BME280;16990;49.056;9.240;2022-08-14T06:48:15;98079.28;;;19.73;58.02
30182;BME280;16990;49.056;9.240;2022-08-14T06:50:42;98083.75;;;19.77;57.79
30182;BME280;16990;49.056;9.240;2022-08-14T06:53:10;98092.72;;;19.87;57.86
30182;BME280;16990;49.056;9.240;2022-08-14T06:55:39;98077.00;;;19.97;58.29
30182;BME280;16990;49.056;9.240;2022-08-14T06:58:10;98062.38;;;20.16;57.98
30182;BME280;16990;49.056;9.240;2022-08-14T07:00:37;98053.50;;;20.24;57.52
30182;BME280;16990;49.056;9.240;2022-08-14T07:03:05;98056.25;;;20.42;57.03
30182;BME280;16990;49.056;9.240;2022-08-14T07:05:49;98049.44;;;20.53;56.79
30182;BME280;16990;49.056;9.240;2022-08-14T07:08:17;98056.81;;;20.61;56.13
30182;BME280;16990;49.056;9.240;2022-08-14T07:10:45;98057.34;;;20.72;56.11
30182;BME280;16990;49.056;9.240;2022-08-14T07:13:13;98059.25;;;20.80;55.72
30182;BME280;16990;49.056;9.240;2022-08-14T07:15:40;98051.00;;;21.02;55.59
30182;BME280;16990;49.056;9.240;2022-08-14T07:18:09;98051.78;;;21.20;55.08
30182;BME280;16990;49.056;9.240;2022-08-14T07:20:37;98050.66;;;21.39;54.95
30182;BME280;16990;49.056;9.240;2022-08-14T07:23:05;98050.84;;;21.51;54.44
30182;BME280;16990;49.056;9.240;2022-08-14T07:25:33;98047.41;;;21.80;53.75
30182;BME280;16990;49.056;9.240;2022-08-14T07:28:07;98045.19;;;21.74;54.33
30182;BME280;16990;49.056;9.240;2022-08-14T07:30:34;98058.16;;;21.77;54.85
30182;BME280;16990;49.056;9.240;2022-08-14T07:33:02;98058.41;;;22.01;54.14
30182;BME280;16990;49.056;9.240;2022-08-14T07:35:30;98069.41;;;22.22;53.37
30182;BME280;16990;49.056;9.240;2022-08-14T07:37:57;98057.25;;;22.02;53.66
30182;BME280;16990;49.056;9.240;2022-08-14T07:40:24;98058.66;;;22.26;53.17
30182;BME280;16990;49.056;9.240;2022-08-14T07:42:51;98064.38;;;22.33;52.65
30182;BME280;16990;49.056;9.240;2022-08-14T07:45:18;98062.03;;;22.52;51.67
30182;BME280;16990;49.056;9.240;2022-08-14T07:47:44;98071.91;;;22.66;51.65
30182;BME280;16990;49.056;9.240;2022-08-14T07:50:12;98073.22;;;22.89;51.23
30182;BME280;16990;49.056;9.240;2022-08-14T07:52:42;98071.72;;;23.01;50.83
30182;BME280;16990;49.056;9.240;2022-08-14T07:55:09;98066.72;;;23.03;51.03
30182;BME280;16990;49.056;9.240;2022-08-14T07:57:37;98063.41;;;23.18;50.55
30182;BME280;16990;49.056;9.240;2022-08-14T08:00:07;98078.38;;;23.12;50.68
30182;BME280;16990;49.056;9.240;2022-08-14T08:02:36;98067.31;;;23.50;48.94
30182;BME280;16990;49.056;9.240;2022-08-14T08:05:05;98064.97;;;23.61;49.01
30182;BME280;16990;49.056;9.240;2022-08-14T08:07:33;98056.16;;;23.76;48.64
30182;BME280;16990;49.056;9.240;2022-08-14T08:10:05;98058.75;;;23.73;48.34
30182;BME280;16990;49.056;9.240;2022-08-14T08:12:54;98065.53;;;23.88;47.85
30182;BME280;16990;49.056;9.240;2022-08-14T08:15:23;98076.44;;;23.88;48.56
30182;BME280;16990;49.056;9.240;2022-08-14T08:17:50;98072.66;;;24.26;46.78
30182;BME280;16990;49.056;9.240;2022-08-14T08:20:18;98072.59;;;24.13;46.81
30182;BME280;16990;49.056;9.240;2022-08-14T08:22:45;98073.44;;;24.38;47.63
30182;BME280;16990;49.056;9.240;2022-08-14T08:25:13;98080.38;;;24.24;46.80
30182;BME280;16990;49.056;9.240;2022-08-14T08:27:41;98074.22;;;24.27;46.53
30182;BME280;16990;49.056;9.240;2022-08-14T08:30:09;98066.59;;;24.20;47.42
30182;BME280;16990;49.056;9.240;2022-08-14T08:32:40;98057.38;;;24.25;46.09
30182;BME280;16990;49.056;9.240;2022-08-14T08:35:15;98061.50;;;24.31;46.48
30182;BME280;16990;49.056;9.240;2022-08-14T08:37:42;98061.38;;;24.52;46.22
30182;BME280;16990;49.056;9.240;2022-08-14T08:40:10;98063.78;;;24.66;45.90
30182;BME280;16990;49.056;9.240;2022-08-14T08:42:39;98054.91;;;24.81;44.84
30182;BME280;16990;49.056;9.240;2022-08-14T08:45:07;98044.84;;;24.97;45.56
30182;BME280;16990;49.056;9.240;2022-08-14T08:47:38;98059.22;;;25.35;44.50
30182;BME280;16990;49.056;9.240;2022-08-14T08:50:15;98048.53;;;25.58;43.17
30182;BME280;16990;49.056;9.240;2022-08-14T08:52:52;98051.84;;;25.79;42.40
30182;BME280;16990;49.056;9.240;2022-08-14T08:55:33;98052.69;;;25.96;41.04
30182;BME280;16990;49.056;9.240;2022-08-14T08:58:04;98042.50;;;26.12;40.70
30182;BME280;16990;49.056;9.240;2022-08-14T09:00:32;98046.03;;;26.28;40.54
30182;BME280;16990;49.056;9.240;2022-08-14T09:03:02;98030.22;;;26.38;40.32
30182;BME280;16990;49.056;9.240;2022-08-14T09:05:30;98018.34;;;26.49;40.15
30182;BME280;16990;49.056;9.240;2022-08-14T09:08:11;98027.06;;;26.87;38.97
30182;BME280;16990;49.056;9.240;2022-08-14T09:10:38;98029.22;;;26.97;39.39
30182;BME280;16990;49.056;9.240;2022-08-14T09:13:07;98023.59;;;26.90;40.63
30182;BME280;16990;49.056;9.240;2022-08-14T09:15:38;98014.94;;;27.27;39.68
30182;BME280;16990;49.056;9.240;2022-08-14T09:18:05;98009.28;;;27.00;39.42
30182;BME280;16990;49.056;9.240;2022-08-14T09:20:32;98004.34;;;27.25;36.50
30182;BME280;16990;49.056;9.240;2022-08-14T09:22:59;97995.28;;;27.05;36.02
30182;BME280;16990;49.056;9.240;2022-08-14T09:25:26;98006.56;;;27.39;35.77
30182;BME280;16990;49.056;9.240;2022-08-14T09:27:54;97990.22;;;27.46;36.96
30182;BME280;16990;49.056;9.240;2022-08-14T09:30:22;97992.19;;;27.88;35.17
30182;BME280;16990;49.056;9.240;2022-08-14T09:33:10;97986.38;;;27.93;35.14
30182;BME280;16990;49.056;9.240;2022-08-14T09:35:54;97986.28;;;27.67;35.03
30182;BME280;16990;49.056;9.240;2022-08-14T09:38:27;97975.78;;;27.49;35.68
30182;BME280;16990;49.056;9.240;2022-08-14T09:41:03;97968.25;;;27.66;35.59
30182;BME280;16990;49.056;9.240;2022-08-14T09:43:42;97980.09;;;28.16;34.95
30182;BME280;16990;49.056;9.240;2022-08-14T09:46:13;97974.91;;;28.37;34.67
30182;BME280;16990;49.056;9.240;2022-08-14T09:48:40;97973.84;;;28.72;33.20
30182;BME280;16990;49.056;9.240;2022-08-14T09:51:07;97984.50;;;28.77;32.96
30182;BME280;16990;49.056;9.240;2022-08-14T09:53:59;97982.19;;;28.79;32.65
30182;BME280;16990;49.056;9.240;2022-08-14T09:56:26;97995.38;;;28.97;32.83
30182;BME280;16990;49.056;9.240;2022-08-14T09:58:56;97983.94;;;29.21;30.84
30182;BME280;16990;49.056;9.240;2022-08-14T10:01:34;97984.09;;;29.39;30.24
30182;BME280;16990;49.056;9.240;2022-08-14T10:04:05;97982.34;;;29.61;29.53
30182;BME280;16990;49.056;9.240;2022-08-14T10:06:43;97970.34;;;29.77;29.62
30182;BME280;16990;49.056;9.240;2022-08-14T10:09:10;97977.19;;;29.56;29.93
30182;BME280;16990;49.056;9.240;2022-08-14T10:11:38;97985.00;;;29.88;30.26
30182;BME280;16990;49.056;9.240;2022-08-14T10:14:12;97981.56;;;30.02;29.55
30182;BME280;16990;49.056;9.240;2022-08-14T10:16:45;97984.78;;;30.07;29.22
30182;BME280;16990;49.056;9.240;2022-08-14T10:19:14;97967.06;;;30.12;28.84
30182;BME280;16990;49.056;9.240;2022-08-14T10:21:42;97968.31;;;30.18;29.59
30182;BME280;16990;49.056;9.240;2022-08-14T10:24:22;97958.97;;;30.34;28.84
30182;BME280;16990;49.056;9.240;2022-08-14T10:26:52;97955.81;;;30.28;28.43
30182;BME280;16990;49.056;9.240;2022-08-14T10:29:30;97941.53;;;30.19;28.32
30182;BME280;16990;49.056;9.240;2022-08-14T10:31:58;97943.44;;;30.07;28.54
30182;BME280;16990;49.056;9.240;2022-08-14T10:34:30;97929.66;;;30.07;29.19
30182;BME280;16990;49.056;9.240;2022-08-14T10:37:03;97932.94;;;30.27;28.64
30182;BME280;16990;49.056;9.240;2022-08-14T10:39:32;97922.00;;;30.45;28.10
30182;BME280;16990;49.056;9.240;2022-08-14T10:42:01;97921.72;;;30.61;28.07
30182;BME280;16990;49.056;9.240;2022-08-14T10:44:32;97927.66;;;30.74;27.46
30182;BME280;16990;49.056;9.240;2022-08-14T10:47:01;97912.75;;;30.86;27.48
30182;BME280;16990;49.056;9.240;2022-08-14T10:49:30;97897.00;;;30.93;27.45
30182;BME280;16990;49.056;9.240;2022-08-14T10:52:01;97889.13;;;30.95;27.57
30182;BME280;16990;49.056;9.240;2022-08-14T10:54:32;97882.47;;;31.14;27.35
30182;BME280;16990;49.056;9.240;2022-08-14T10:57:15;97867.09;;;31.17;26.78
30182;BME280;16990;49.056;9.240;2022-08-14T10:59:49;97872.59;;;31.10;26.84
30182;BME280;16990;49.056;9.240;2022-08-14T11:02:22;97878.94;;;31.21;27.10
30182;BME280;16990;49.056;9.240;2022-08-14T11:05:07;97878.97;;;31.25;26.57
30182;BME280;16990;49.056;9.240;2022-08-14T11:07:37;97870.22;;;30.98;26.51
30182;BME280;16990;49.056;9.240;2022-08-14T11:10:06;97863.53;;;31.09;27.25
30182;BME280;16990;49.056;9.240;2022-08-14T11:12:44;97857.66;;;31.25;26.94
30182;BME280;16990;49.056;9.240;2022-08-14T11:15:14;97858.09;;;31.42;26.18
30182;BME280;16990;49.056;9.240;2022-08-14T11:17:43;97850.97;;;31.48;26.01
30182;BME280;16990;49.056;9.240;2022-08-14T11:20:13;97851.78;;;31.52;26.38
30182;BME280;16990;49.056;9.240;2022-08-14T11:22:40;97857.69;;;31.47;26.18
30182;BME280;16990;49.056;9.240;2022-08-14T11:25:09;97862.44;;;31.64;26.89
30182;BME280;16990;49.056;9.240;2022-08-14T11:27:38;97851.75;;;31.88;26.22
30182;BME280;16990;49.056;9.240;2022-08-14T11:30:07;97846.63;;;31.97;25.85
30182;BME280;16990;49.056;9.240;2022-08-14T11:32:35;97846.22;;;32.02;25.60
30182;BME280;16990;49.056;9.240;2022-08-14T11:35:06;97848.19;;;32.09;25.92
30182;BME280;16990;49.056;9.240;2022-08-14T11:37:36;97856.81;;;32.29;25.15
30182;BME280;16990;49.056;9.240;2022-08-14T11:40:04;97855.59;;;32.40;25.02
30182;BME280;16990;49.056;9.240;2022-08-14T11:42:44;97854.38;;;32.49;24.98
30182;BME280;16990;49.056;9.240;2022-08-14T11:45:13;97852.84;;;32.30;24.87
30182;BME280;16990;49.056;9.240;2022-08-14T11:47:40;97845.81;;;31.93;25.28
30182;BME280;16990;49.056;9.240;2022-08-14T11:50:17;97850.97;;;31.80;25.67
30182;BME280;16990;49.056;9.240;2022-08-14T11:52:44;97844.56;;;32.26;25.15
30182;BME280;16990;49.056;9.240;2022-08-14T11:55:12;97845.75;;;32.25;24.99
30182;BME280;16990;49.056;9.240;2022-08-14T11:57:40;97862.34;;;32.29;24.87
30182;BME280;16990;49.056;9.240;2022-08-14T12:00:10;97851.63;;;32.45;24.85
30182;BME280;16990;49.056;9.240;2022-08-14T12:02:48;97854.38;;;32.49;25.08
30182;BME280;16990;49.056;9.240;2022-08-14T12:05:27;97848.88;;;32.52;24.43
30182;BME280;16990;49.056;9.240;2022-08-14T12:07:54;97847.59;;;32.68;24.80
30182;BME280;16990;49.056;9.240;2022-08-14T12:10:22;97826.63;;;32.74;24.16
30182;BME280;16990;49.056;9.240;2022-08-14T12:12:49;97832.31;;;32.31;24.27
30182;BME280;16990;49.056;9.240;2022-08-14T12:15:27;97829.91;;;32.40;24.63
30182;BME280;16990;49.056;9.240;2022-08-14T12:17:54;97817.97;;;32.65;24.40
30182;BME280;16990;49.056;9.240;2022-08-14T12:20:29;97817.09;;;32.75;24.30
30182;BME280;16990;49.056;9.240;2022-08-14T12:22:57;97811.56;;;32.78;24.58
30182;BME280;16990;49.056;9.240;2022-08-14T12:25:25;97806.00;;;32.82;24.17
30182;BME280;16990;49.056;9.240;2022-08-14T12:27:54;97808.28;;;32.94;23.74
30182;BME280;16990;49.056;9.240;2022-08-14T12:30:26;97808.28;;;32.94;23.99
30182;BME280;16990;49.056;9.240;2022-08-14T12:32:53;97792.81;;;33.00;24.30
30182;BME280;16990;49.056;9.240;2022-08-14T12:35:20;97790.03;;;33.08;24.26
30182;BME280;16990;49.056;9.240;2022-08-14T12:37:50;97794.75;;;33.11;23.74
30182;BME280;16990;49.056;9.240;2022-08-14T12:40:18;97784.53;;;33.00;23.68
30182;BME280;16990;49.056;9.240;2022-08-14T12:42:48;97764.72;;;33.05;23.35
30182;BME280;16990;49.056;9.240;2022-08-14T12:45:16;97769.78;;;33.18;23.83
30182;BME280;16990;49.056;9.240;2022-08-14T12:47:44;97771.59;;;33.35;23.41
30182;BME280;16990;49.056;9.240;2022-08-14T12:50:11;97772.09;;;33.26;23.40
30182;BME280;16990;49.056;9.240;2022-08-14T12:52:39;97770.41;;;33.36;23.27
30182;BME280;16990;49.056;9.240;2022-08-14T12:55:09;97766.47;;;33.34;23.39
30182;BME280;16990;49.056;9.240;2022-08-14T12:57:38;97772.28;;;33.46;22.89
30182;BME280;16990;49.056;9.240;2022-08-14T13:00:11;97766.56;;;33.23;23.07
30182;BME280;16990;49.056;9.240;2022-08-14T13:02:40;97756.25;;;32.71;23.89
30182;BME280;16990;49.056;9.240;2022-08-14T13:05:08;97751.47;;;32.75;23.97
30182;BME280;16990;49.056;9.240;2022-08-14T13:07:37;97744.06;;;33.14;23.36
30182;BME280;16990;49.056;9.240;2022-08-14T13:10:08;97749.44;;;33.35;23.36
30182;BME280;16990;49.056;9.240;2022-08-14T13:12:36;97748.41;;;33.63;23.10
30182;BME280;16990;49.056;9.240;2022-08-14T13:15:06;97753.47;;;33.72;22.67